sensor_id;sensor_type;location;lat;lon;timestamp;pressure;altitude;pressure_sealevel;temperature;humidity
5298;BME280;14738;42.668;23.250;2023-05-07T00:00:15;48416.09;;;-141.90;100.00
5298;BME280;14738;42.668;23.250;2023-05-07T00:02:43;48412.13;;;-141.90;100.00
5298;BME280;14738;42.668;23.250;2023-05-07T00:05:09;48390.31;;;-141.90;100.00
5298;BME280;14738;42.668;23.250;2023-05-07T00:07:35;48414.13;;;-141.90;100.00
5298;BME280;14738;42.668;23.250;2023-05-07T00:10:00;48390.31;;;-141.90;100.00
5298;BME280;14738;42.668;23.250;2023-05-07T00:12:26;48408.16;;;-141.90;100.00
5298;BME280;14738;42.668;23.250;2023-05-07T00:14:51;48420.09;;;-141.90;100.00
5298;BME280;14738;42.668;23.250;2023-05-07T00:17:16;48416.09;;;-141.90;100.00
5298;BME280;14738;42.668;23.250;2023-05-07T00:19:42;48414.13;;;-141.90;100.00
5298;BME280;14738;42.668;23.250;2023-05-07T00:22:08;48418.09;;;-141.90;100.00
5298;BME280;14738;42.668;23.250;2023-05-07T00:24:33;48430.00;;;-141.90;100.00
5298;BME280;14738;42.668;23.250;2023-05-07T00:26:59;48386.34;;;-141.90;100.00
5298;BME280;14738;42.668;23.250;2023-05-07T00:29:24;48392.28;;;-141.90;100.00
5298;BME280;14738;42.668;23.250;2023-05-07T00:31:50;48414.13;;;-141.90;100.00
5298;BME280;14738;42.668;23.250;2023-05-07T00:34:16;48398.25;;;-141.90;100.00
5298;BME280;14738;42.668;23.250;2023-05-07T00:36:41;48422.06;;;-141.90;100.00
5298;BME280;14738;42.668;23.250;2023-05-07T00:39:06;48426.03;;;-141.90;100.00
5298;BME280;14738;42.668;23.250;2023-05-07T00:41:32;48402.22;;;-141.90;100.00
5298;BME280;14738;42.668;23.250;2023-05-07T00:43:57;48416.09;;;-141.90;100.00
5298;BME280;14738;42.668;23.250;2023-05-07T00:46:23;48422.06;;;-141.90;100.00
5298;BME280;14738;42.668;23.250;2023-05-07T00:48:50;48402.22;;;-141.90;100.00
5298;BME280;14738;42.668;23.250;2023-05-07T00:51:17;48402.22;;;-141.90;100.00
5298;BME280;14738;42.668;23.250;2023-05-07T00:53:43;48437.94;;;-141.90;100.00
5298;BME280;14738;42.668;23.250;2023-05-07T00:56:08;48388.31;;;-141.90;100.00
5298;BME280;14738;42.668;23.250;2023-05-07T00:58:35;48406.19;;;-141.90;100.00
5298;BME280;14738;42.668;23.250;2023-05-07T01:01:00;48433.97;;;-141.90;100.00
5298;BME280;14738;42.668;23.250;2023-05-07T01:03:26;48394.28;;;-141.90;100.00
5298;BME280;14738;42.668;23.250;2023-05-07T01:05:52;48402.22;;;-141.90;100.00
5298;BME280;14738;42.668;23.250;2023-05-07T01:08:18;48418.09;;;-141.90;100.00
5298;BME280;14738;42.668;23.250;2023-05-07T01:10:44;48414.13;;;-141.90;100.00
5298;BME280;14738;42.668;23.250;2023-05-07T01:13:11;48430.00;;;-141.90;100.00
5298;BME280;14738;42.668;23.250;2023-05-07T01:15:40;48420.09;;;-141.90;100.00
5298;BME280;14738;42.668;23.250;2023-05-07T01:18:06;48445.88;;;-141.90;100.00
5298;BME280;14738;42.668;23.250;2023-05-07T01:20:32;48422.06;;;-141.90;100.00
5298;BME280;14738;42.668;23.250;2023-05-07T01:22:57;48426.03;;;-141.90;100.00
5298;BME280;14738;42.668;23.250;2023-05-07T01:25:24;48418.09;;;-141.90;100.00
5298;BME280;14738;42.668;23.250;2023-05-07T01:27:50;48426.03;;;-141.90;100.00
5298;BME280;14738;42.668;23.250;2023-05-07T01:30:16;48416.09;;;-141.90;100.00
5298;BME280;14738;42.668;23.250;2023-05-07T01:32:49;48422.06;;;-141.90;100.00
5298;BME280;14738;42.668;23.250;2023-05-07T01:35:20;48430.00;;;-141.90;100.00
5298;BME280;14738;42.668;23.250;2023-05-07T01:37:48;48408.16;;;-141.90;100.00
5298;BME280;14738;42.668;23.250;2023-05-07T01:40:14;48394.28;;;-141.90;100.00
5298;BME280;14738;42.668;23.250;2023-05-07T01:42:42;48430.00;;;-141.90;100.00
5298;BME280;14738;42.668;23.250;2023-05-07T01:45:08;48426.03;;;-141.90;100.00
5298;BME280;14738;42.668;23.250;2023-05-07T01:47:35;48457.81;;;-141.90;100.00
5298;BME280;14738;42.668;23.250;2023-05-07T01:50:01;48416.09;;;-141.90;100.00
5298;BME280;14738;42.668;23.250;2023-05-07T01:52:27;48420.09;;;-141.90;100.00
5298;BME280;14738;42.668;23.250;2023-05-07T01:54:53;48424.06;;;-141.90;100.00
5298;BME280;14738;42.668;23.250;2023-05-07T01:57:19;48414.13;;;-141.90;100.00
5298;BME280;14738;42.668;23.250;2023-05-07T01:59:44;48408.16;;;-141.90;100.00
5298;BME280;14738;42.668;23.250;2023-05-07T02:02:10;48404.19;;;-141.90;100.00
5298;BME280;14738;42.668;23.250;2023-05-07T02:04:35;48426.03;;;-141.90;100.00
5298;BME280;14738;42.668;23.250;2023-05-07T02:07:01;48445.88;;;-141.90;100.00
5298;BME280;14738;42.668;23.250;2023-05-07T02:09:27;48406.19;;;-141.90;100.00
5298;BME280;14738;42.668;23.250;2023-05-07T02:11:52;48437.94;;;-141.90;100.00
5298;BME280;14738;42.668;23.250;2023-05-07T02:14:17;48426.03;;;-141.90;100.00
5298;BME280;14738;42.668;23.250;2023-05-07T02:16:43;48445.88;;;-141.90;100.00
5298;BME280;14738;42.668;23.250;2023-05-07T02:19:08;48424.06;;;-141.90;100.00
5298;BME280;14738;42.668;23.250;2023-05-07T02:21:33;48435.97;;;-141.90;100.00
5298;BME280;14738;42.668;23.250;2023-05-07T02:23:59;48398.25;;;-141.90;100.00
5298;BME280;14738;42.668;23.250;2023-05-07T02:26:24;48441.91;;;-141.90;100.00
5298;BME280;14738;42.668;23.250;2023-05-07T02:28:51;48432.00;;;-141.90;100.00
5298;BME280;14738;42.668;23.250;2023-05-07T02:31:16;48433.97;;;-141.90;100.00
5298;BME280;14738;42.668;23.250;2023-05-07T02:33:42;48426.03;;;-141.90;100.00
5298;BME280;14738;42.668;23.250;2023-05-07T02:36:11;48433.97;;;-141.90;100.00
5298;BME280;14738;42.668;23.250;2023-05-07T02:38:37;48418.09;;;-141.90;100.00
5298;BME280;14738;42.668;23.250;2023-05-07T02:41:03;48420.09;;;-141.90;100.00
5298;BME280;14738;42.668;23.250;2023-05-07T02:43:28;48457.81;;;-141.90;100.00
5298;BME280;14738;42.668;23.250;2023-05-07T02:46:01;48430.00;;;-141.90;100.00
5298;BME280;14738;42.668;23.250;2023-05-07T02:48:27;48424.06;;;-141.90;100.00
5298;BME280;14738;42.668;23.250;2023-05-07T02:50:52;48457.81;;;-141.90;100.00
5298;BME280;14738;42.668;23.250;2023-05-07T02:53:17;48430.00;;;-141.90;100.00
5298;BME280;14738;42.668;23.250;2023-05-07T02:55:43;48426.03;;;-141.90;100.00
5298;BME280;14738;42.668;23.250;2023-05-07T02:58:08;48433.97;;;-141.90;100.00
5298;BME280;14738;42.668;23.250;2023-05-07T03:00:34;48443.91;;;-141.90;100.00
5298;BME280;14738;42.668;23.250;2023-05-07T03:02:59;48426.03;;;-141.90;100.00
5298;BME280;14738;42.668;23.250;2023-05-07T03:05:25;48418.09;;;-141.90;100.00
5298;BME280;14738;42.668;23.250;2023-05-07T03:07:50;48426.03;;;-141.90;100.00
5298;BME280;14738;42.668;23.250;2023-05-07T03:10:16;48453.81;;;-141.90;100.00
5298;BME280;14738;42.668;23.250;2023-05-07T03:12:41;48432.00;;;-141.90;100.00
5298;BME280;14738;42.668;23.250;2023-05-07T03:15:07;48378.38;;;-141.90;100.00
5298;BME280;14738;42.668;23.250;2023-05-07T03:17:33;48449.84;;;-141.90;100.00
5298;BME280;14738;42.668;23.250;2023-05-07T03:19:58;48426.03;;;-141.90;100.00
5298;BME280;14738;42.668;23.250;2023-05-07T03:22:24;48485.59;;;-141.90;100.00
5298;BME280;14738;42.668;23.250;2023-05-07T03:24:49;48414.13;;;-141.90;100.00
5298;BME280;14738;42.668;23.250;2023-05-07T03:27:14;48420.09;;;-141.90;100.00
5298;BME280;14738;42.668;23.250;2023-05-07T03:29:40;48414.13;;;-141.90;100.00
5298;BME280;14738;42.668;23.250;2023-05-07T03:32:05;48449.84;;;-141.90;100.00
5298;BME280;14738;42.668;23.250;2023-05-07T03:34:31;48433.97;;;-141.90;100.00
5298;BME280;14738;42.668;23.250;2023-05-07T03:36:56;48398.25;;;-141.90;100.00
5298;BME280;14738;42.668;23.250;2023-05-07T03:39:21;48406.19;;;-141.90;100.00
5298;BME280;14738;42.668;23.250;2023-05-07T03:41:47;48376.41;;;-141.90;100.00
5298;BME280;14738;42.668;23.250;2023-05-07T03:44:12;48433.97;;;-141.90;100.00
5298;BME280;14738;42.668;23.250;2023-05-07T03:46:38;48414.13;;;-141.90;100.00
5298;BME280;14738;42.668;23.250;2023-05-07T03:49:03;48418.09;;;-141.90;100.00
5298;BME280;14738;42.668;23.250;2023-05-07T03:51:28;48430.00;;;-141.90;100.00
5298;BME280;14738;42.668;23.250;2023-05-07T03:53:54;48418.09;;;-141.90;100.00
5298;BME280;14738;42.668;23.250;2023-05-07T03:56:19;48416.09;;;-141.90;100.00
5298;BME280;14738;42.668;23.250;2023-05-07T03:58:46;48433.97;;;-141.90;100.00
5298;BME280;14738;42.668;23.250;2023-05-07T04:01:12;48430.00;;;-141.90;100.00
5298;BME280;14738;42.668;23.250;2023-05-07T04:03:37;48418.09;;;-141.90;100.00
5298;BME280;14738;42.668;23.250;2023-05-07T04:06:03;48426.03;;;-141.90;100.00
5298;BME280;14738;42.668;23.250;2023-05-07T04:08:28;48465.75;;;-141.90;42.26
5298;BME280;14738;42.668;23.250;2023-05-07T04:10:55;48441.91;;;-141.90;41.85
5298;BME280;14738;42.668;23.250;2023-05-07T04:13:20;48441.91;;;-141.90;41.40
5298;BME280;14738;42.668;23.250;2023-05-07T04:15:46;48459.78;;;-141.90;40.33
5298;BME280;14738;42.668;23.250;2023-05-07T04:18:11;48420.09;;;-141.90;41.92
5298;BME280;14738;42.668;23.250;2023-05-07T04:20:36;48457.81;;;-141.90;40.54
5298;BME280;14738;42.668;23.250;2023-05-07T04:23:02;48430.00;;;-141.90;40.58
5298;BME280;14738;42.668;23.250;2023-05-07T04:25:27;48461.78;;;-141.90;38.18
5298;BME280;14738;42.668;23.250;2023-05-07T04:27:53;48447.88;;;-141.90;37.51
5298;BME280;14738;42.668;23.250;2023-05-07T04:30:19;48497.50;;;-141.90;36.73
5298;BME280;14738;42.668;23.250;2023-05-07T04:32:44;48481.63;;;-141.90;36.48
5298;BME280;14738;42.668;23.250;2023-05-07T04:35:10;48465.75;;;-141.90;37.29
5298;BME280;14738;42.668;23.250;2023-05-07T04:37:38;48517.34;;;-141.90;34.96
5298;BME280;14738;42.668;23.250;2023-05-07T04:40:04;48513.38;;;-141.90;33.80
5298;BME280;14738;42.668;23.250;2023-05-07T04:42:29;48527.28;;;-141.90;32.80
5298;BME280;14738;42.668;23.250;2023-05-07T04:44:55;48545.16;;;-141.90;32.29
5298;BME280;14738;42.668;23.250;2023-05-07T04:47:20;48541.19;;;-141.90;33.64
5298;BME280;14738;42.668;23.250;2023-05-07T04:49:46;48565.00;;;-141.90;31.82
5298;BME280;14738;42.668;23.250;2023-05-07T04:52:11;48604.72;;;-141.90;31.04
5298;BME280;14738;42.668;23.250;2023-05-07T04:54:37;48576.91;;;-141.90;30.99
5298;BME280;14738;42.668;23.250;2023-05-07T04:57:03;48539.19;;;-141.90;31.84
5298;BME280;14738;42.668;23.250;2023-05-07T04:59:30;48551.09;;;-141.90;31.27
5298;BME280;14738;42.668;23.250;2023-05-07T05:01:55;48588.84;;;-141.90;30.64
5298;BME280;14738;42.668;23.250;2023-05-07T05:04:21;48584.84;;;-141.90;31.37
5298;BME280;14738;42.668;23.250;2023-05-07T05:06:46;48549.13;;;-141.90;30.89
5298;BME280;14738;42.668;23.250;2023-05-07T05:09:11;48539.19;;;-141.90;31.52
5298;BME280;14738;42.668;23.250;2023-05-07T05:11:37;48570.97;;;-141.90;30.54
5298;BME280;14738;42.668;23.250;2023-05-07T05:14:02;48572.94;;;-141.90;30.67
5298;BME280;14738;42.668;23.250;2023-05-07T05:16:27;48604.72;;;-141.90;30.84
5298;BME280;14738;42.668;23.250;2023-05-07T05:18:53;48614.63;;;-141.90;29.78
5298;BME280;14738;42.668;23.250;2023-05-07T05:21:20;48588.84;;;-141.90;30.04
5298;BME280;14738;42.668;23.250;2023-05-07T05:23:46;48610.66;;;-141.90;28.77
5298;BME280;14738;42.668;23.250;2023-05-07T05:26:11;48618.59;;;-141.90;28.21
5298;BME280;14738;42.668;23.250;2023-05-07T05:28:36;48640.44;;;-141.90;28.33
5298;BME280;14738;42.668;23.250;2023-05-07T05:31:02;48620.59;;;-141.90;28.88
5298;BME280;14738;42.668;23.250;2023-05-07T05:33:27;48632.50;;;-141.90;29.61
5298;BME280;14738;42.668;23.250;2023-05-07T05:35:55;48592.81;;;-141.90;28.78
5298;BME280;14738;42.668;23.250;2023-05-07T05:38:21;48553.09;;;-141.90;30.82
5298;BME280;14738;42.668;23.250;2023-05-07T05:40:47;48594.78;;;-141.90;29.42
5298;BME280;14738;42.668;23.250;2023-05-07T05:43:13;48580.88;;;-141.90;30.04
5298;BME280;14738;42.668;23.250;2023-05-07T05:45:39;48612.66;;;-141.90;30.34
5298;BME280;14738;42.668;23.250;2023-05-07T05:48:05;48592.81;;;-141.90;30.49
5298;BME280;14738;42.668;23.250;2023-05-07T05:50:31;48626.56;;;-141.90;28.40
5298;BME280;14738;42.668;23.250;2023-05-07T05:52:56;48632.50;;;-141.90;27.91
5298;BME280;14738;42.668;23.250;2023-05-07T05:55:22;48692.06;;;-141.90;26.46
5298;BME280;14738;42.668;23.250;2023-05-07T05:57:48;48670.22;;;-141.90;26.55
5298;BME280;14738;42.668;23.250;2023-05-07T06:00:14;48735.75;;;-141.90;24.28
5298;BME280;14738;42.668;23.250;2023-05-07T06:02:39;48700.00;;;-141.90;25.28
5298;BME280;14738;42.668;23.250;2023-05-07T06:05:05;48658.31;;;-141.90;27.82
5298;BME280;14738;42.668;23.250;2023-05-07T06:07:30;48676.19;;;-141.90;27.70
5298;BME280;14738;42.668;23.250;2023-05-07T06:09:56;48707.94;;;-141.90;26.35
5298;BME280;14738;42.668;23.250;2023-05-07T06:12:21;48705.97;;;-141.90;25.60
5298;BME280;14738;42.668;23.250;2023-05-07T06:14:47;48672.22;;;-141.90;26.26
5298;BME280;14738;42.668;23.250;2023-05-07T06:17:12;48743.69;;;-141.90;25.28
5298;BME280;14738;42.668;23.250;2023-05-07T06:19:38;48686.13;;;-141.90;25.45
5298;BME280;14738;42.668;23.250;2023-05-07T06:22:04;48680.16;;;-141.90;26.44
5298;BME280;14738;42.668;23.250;2023-05-07T06:24:30;48692.06;;;-141.90;26.17
5298;BME280;14738;42.668;23.250;2023-05-07T06:26:55;48700.00;;;-141.90;25.42
5298;BME280;14738;42.668;23.250;2023-05-07T06:29:20;48751.63;;;-141.90;24.70
5298;BME280;14738;42.668;23.250;2023-05-07T06:31:46;48713.91;;;-141.90;25.79
5298;BME280;14738;42.668;23.250;2023-05-07T06:34:11;48698.03;;;-141.90;26.23
5298;BME280;14738;42.668;23.250;2023-05-07T06:36:40;48707.94;;;-141.90;26.49
5298;BME280;14738;42.668;23.250;2023-05-07T06:39:05;48723.84;;;-141.90;25.22
5298;BME280;14738;42.668;23.250;2023-05-07T06:41:31;48694.06;;;-141.90;25.42
5298;BME280;14738;42.668;23.250;2023-05-07T06:43:56;48711.91;;;-141.90;24.86
5298;BME280;14738;42.668;23.250;2023-05-07T06:46:22;48751.63;;;-141.90;25.10
5298;BME280;14738;42.668;23.250;2023-05-07T06:48:47;48703.97;;;-141.90;26.34
5298;BME280;14738;42.668;23.250;2023-05-07T06:51:12;48696.03;;;-141.90;26.32
5298;BME280;14738;42.668;23.250;2023-05-07T06:53:38;48711.91;;;-141.90;27.02
5298;BME280;14738;42.668;23.250;2023-05-07T06:56:03;48753.63;;;-141.90;25.00
5298;BME280;14738;42.668;23.250;2023-05-07T06:58:29;48739.72;;;-141.90;24.67
5298;BME280;14738;42.668;23.250;2023-05-07T07:00:55;48711.91;;;-141.90;26.64
5298;BME280;14738;42.668;23.250;2023-05-07T07:03:20;48604.72;;;-141.90;27.95
5298;BME280;14738;42.668;23.250;2023-05-07T07:05:46;48565.00;;;-141.90;29.65
5298;BME280;14738;42.668;23.250;2023-05-07T07:08:11;48584.84;;;-141.90;29.17
5298;BME280;14738;42.668;23.250;2023-05-07T07:10:37;48590.81;;;-141.90;28.98
5298;BME280;14738;42.668;23.250;2023-05-07T07:18:04;48479.63;;;-141.90;31.24
5298;BME280;14738;42.668;23.250;2023-05-07T07:20:29;48473.69;;;-141.90;32.45
5298;BME280;14738;42.668;23.250;2023-05-07T07:22:59;48513.38;;;-141.90;32.45
5298;BME280;14738;42.668;23.250;2023-05-07T07:25:36;48521.34;;;-141.90;32.28
5298;BME280;14738;42.668;23.250;2023-05-07T07:28:02;48374.41;;;-141.90;33.40
5298;BME280;14738;42.668;23.250;2023-05-07T07:30:28;48491.56;;;-141.90;33.16
5298;BME280;14738;42.668;23.250;2023-05-07T07:32:54;48477.66;;;-141.90;32.69
5298;BME280;14738;42.668;23.250;2023-05-07T07:35:20;48479.63;;;-141.90;32.53
5298;BME280;14738;42.668;23.250;2023-05-07T07:37:46;48477.66;;;-141.90;32.94
5298;BME280;14738;42.668;23.250;2023-05-07T07:40:12;48477.66;;;-141.90;32.82
5298;BME280;14738;42.668;23.250;2023-05-07T07:42:38;48493.53;;;-141.90;34.25
5298;BME280;14738;42.668;23.250;2023-05-07T07:45:04;48491.56;;;-141.90;32.22
5298;BME280;14738;42.668;23.250;2023-05-07T07:47:41;48487.56;;;-141.90;34.18
5298;BME280;14738;42.668;23.250;2023-05-07T07:50:09;48489.56;;;-141.90;32.12
5298;BME280;14738;42.668;23.250;2023-05-07T07:52:35;48469.72;;;-141.90;33.78
5298;BME280;14738;42.668;23.250;2023-05-07T07:55:01;48513.38;;;-141.90;32.11
5298;BME280;14738;42.668;23.250;2023-05-07T07:57:27;48507.44;;;-141.90;34.59
5298;BME280;14738;42.668;23.250;2023-05-07T07:59:52;48521.34;;;-141.90;32.68
5298;BME280;14738;42.668;23.250;2023-05-07T08:02:18;48511.41;;;-141.90;33.41
5298;BME280;14738;42.668;23.250;2023-05-07T08:04:43;48521.34;;;-141.90;32.85
5298;BME280;14738;42.668;23.250;2023-05-07T08:07:10;48513.38;;;-141.90;32.32
5298;BME280;14738;42.668;23.250;2023-05-07T08:09:36;48489.56;;;-141.90;32.56
5298;BME280;14738;42.668;23.250;2023-05-07T08:12:02;48517.34;;;-141.90;33.46
5298;BME280;14738;42.668;23.250;2023-05-07T08:14:28;48477.66;;;-141.90;33.50
5298;BME280;14738;42.668;23.250;2023-05-07T08:16:54;48493.53;;;-141.90;34.68
5298;BME280;14738;42.668;23.250;2023-05-07T08:19:20;48485.59;;;-141.90;35.50
5298;BME280;14738;42.668;23.250;2023-05-07T08:21:46;48503.47;;;-141.90;32.47
5298;BME280;14738;42.668;23.250;2023-05-07T08:24:15;48515.38;;;-141.90;32.69
5298;BME280;14738;42.668;23.250;2023-05-07T08:26:41;48521.34;;;-141.90;32.99
5298;BME280;14738;42.668;23.250;2023-05-07T08:29:07;48523.31;;;-141.90;32.14
5298;BME280;14738;42.668;23.250;2023-05-07T08:31:32;48553.09;;;-141.90;31.85
5298;BME280;14738;42.668;23.250;2023-05-07T08:33:59;48543.16;;;-141.90;31.50
5298;BME280;14738;42.668;23.250;2023-05-07T08:36:25;48513.38;;;-141.90;31.91
5298;BME280;14738;42.668;23.250;2023-05-07T08:38:51;48497.50;;;-141.90;31.69
5298;BME280;14738;42.668;23.250;2023-05-07T08:41:16;48503.47;;;-141.90;31.88
5298;BME280;14738;42.668;23.250;2023-05-07T08:43:47;48527.28;;;-141.90;32.85
5298;BME280;14738;42.668;23.250;2023-05-07T08:46:17;48505.44;;;-141.90;32.48
5298;BME280;14738;42.668;23.250;2023-05-07T08:48:43;48509.41;;;-141.90;32.86
5298;BME280;14738;42.668;23.250;2023-05-07T08:51:12;48525.31;;;-141.90;32.45
5298;BME280;14738;42.668;23.250;2023-05-07T08:53:40;48517.34;;;-141.90;32.73
5298;BME280;14738;42.668;23.250;2023-05-07T08:56:08;48539.19;;;-141.90;30.88
5298;BME280;14738;42.668;23.250;2023-05-07T08:58:33;48521.34;;;-141.90;30.97
5298;BME280;14738;42.668;23.250;2023-05-07T09:01:01;48527.28;;;-141.90;31.10
5298;BME280;14738;42.668;23.250;2023-05-07T09:03:28;48493.53;;;-141.90;31.12
5298;BME280;14738;42.668;23.250;2023-05-07T09:05:53;48453.81;;;-141.90;31.00
5298;BME280;14738;42.668;23.250;2023-05-07T09:08:24;48529.28;;;-141.90;30.05
5298;BME280;14738;42.668;23.250;2023-05-07T09:10:50;48493.53;;;-141.90;32.24
5298;BME280;14738;42.668;23.250;2023-05-07T09:13:15;48517.34;;;-141.90;30.81
5298;BME280;14738;42.668;23.250;2023-05-07T09:15:43;48513.38;;;-141.90;31.57
5298;BME280;14738;42.668;23.250;2023-05-07T09:18:08;48541.19;;;-141.90;30.27
5298;BME280;14738;42.668;23.250;2023-05-07T09:20:36;48537.22;;;-141.90;29.64
5298;BME280;14738;42.668;23.250;2023-05-07T09:23:01;48576.91;;;-141.90;30.61
5298;BME280;14738;42.668;23.250;2023-05-07T09:25:28;48549.13;;;-141.90;29.06
5298;BME280;14738;42.668;23.250;2023-05-07T09:27:54;48568.97;;;-141.90;28.98
5298;BME280;14738;42.668;23.250;2023-05-07T09:30:20;48557.06;;;-141.90;30.33
5298;BME280;14738;42.668;23.250;2023-05-07T09:32:46;48543.16;;;-141.90;30.92
5298;BME280;14738;42.668;23.250;2023-05-07T09:35:16;48553.09;;;-141.90;29.79
5298;BME280;14738;42.668;23.250;2023-05-07T09:37:46;48582.88;;;-141.90;29.26
5298;BME280;14738;42.668;23.250;2023-05-07T09:40:30;48465.75;;;-141.90;29.23
5298;BME280;14738;42.668;23.250;2023-05-07T09:42:56;48527.28;;;-141.90;29.21
5298;BME280;14738;42.668;23.250;2023-05-07T09:45:33;48592.81;;;-141.90;27.82
5298;BME280;14738;42.668;23.250;2023-05-07T09:48:00;48592.81;;;-141.90;27.02
5298;BME280;14738;42.668;23.250;2023-05-07T09:50:34;48576.91;;;-141.90;27.13
5298;BME280;14738;42.668;23.250;2023-05-07T09:53:01;48553.09;;;-141.90;27.41
5298;BME280;14738;42.668;23.250;2023-05-07T09:55:28;48541.19;;;-141.90;27.09
5298;BME280;14738;42.668;23.250;2023-05-07T09:57:54;48598.75;;;-141.90;28.00
5298;BME280;14738;42.668;23.250;2023-05-07T10:00:21;48580.88;;;-141.90;26.27
5298;BME280;14738;42.668;23.250;2023-05-07T10:02:52;48588.84;;;-141.90;25.80
5298;BME280;14738;42.668;23.250;2023-05-07T10:05:18;48555.09;;;-141.90;26.99
5298;BME280;14738;42.668;23.250;2023-05-07T10:07:46;48555.09;;;-141.90;26.06
5298;BME280;14738;42.668;23.250;2023-05-07T10:10:12;48565.00;;;-141.90;26.39
5298;BME280;14738;42.668;23.250;2023-05-07T10:12:38;48624.56;;;-141.90;26.96
5298;BME280;14738;42.668;23.250;2023-05-07T10:15:07;48630.53;;;-141.90;25.91
5298;BME280;14738;42.668;23.250;2023-05-07T10:17:38;48586.84;;;-141.90;25.55
5298;BME280;14738;42.668;23.250;2023-05-07T10:20:05;48588.84;;;-141.90;25.21
5298;BME280;14738;42.668;23.250;2023-05-07T10:22:38;48582.88;;;-141.90;24.29
5298;BME280;14738;42.668;23.250;2023-05-07T10:25:23;48557.06;;;-141.90;25.00
5298;BME280;14738;42.668;23.250;2023-05-07T10:27:51;48594.78;;;-141.90;25.39
5298;BME280;14738;42.668;23.250;2023-05-07T10:33:05;48555.09;;;-141.90;26.53
5298;BME280;14738;42.668;23.250;2023-05-07T10:35:39;48574.94;;;-141.90;24.24
5298;BME280;14738;42.668;23.250;2023-05-07T10:38:06;48588.84;;;-141.90;25.02
5298;BME280;14738;42.668;23.250;2023-05-07T10:40:32;48596.78;;;-141.90;24.28
5298;BME280;14738;42.668;23.250;2023-05-07T10:42:59;48557.06;;;-141.90;24.47
5298;BME280;14738;42.668;23.250;2023-05-07T10:45:26;48565.00;;;-141.90;26.04
5298;BME280;14738;42.668;23.250;2023-05-07T10:48:12;48549.13;;;-141.90;24.66
5298;BME280;14738;42.668;23.250;2023-05-07T10:50:39;48453.81;;;-141.90;25.54
5298;BME280;14738;42.668;23.250;2023-05-07T10:55:49;48592.81;;;-141.90;25.14
5298;BME280;14738;42.668;23.250;2023-05-07T11:00:49;48541.19;;;-141.90;25.60
5298;BME280;14738;42.668;23.250;2023-05-07T11:03:15;48535.22;;;-141.90;25.39
5298;BME280;14738;42.668;23.250;2023-05-07T11:05:41;48572.94;;;-141.90;25.50
5298;BME280;14738;42.668;23.250;2023-05-07T11:08:08;48555.09;;;-141.90;25.12
5298;BME280;14738;42.668;23.250;2023-05-07T11:10:54;48592.81;;;-141.90;24.61
5298;BME280;14738;42.668;23.250;2023-05-07T11:13:48;48590.81;;;-141.90;24.21
5298;BME280;14738;42.668;23.250;2023-05-07T11:16:19;48584.84;;;-141.90;24.33
5298;BME280;14738;42.668;23.250;2023-05-07T11:18:50;48549.13;;;-141.90;24.57
5298;BME280;14738;42.668;23.250;2023-05-07T11:21:35;48584.84;;;-141.90;23.60
5298;BME280;14738;42.668;23.250;2023-05-07T11:24:01;48553.09;;;-141.90;23.93
5298;BME280;14738;42.668;23.250;2023-05-07T11:26:29;48557.06;;;-141.90;24.29
5298;BME280;14738;42.668;23.250;2023-05-07T11:28:56;48547.13;;;-141.90;24.08
5298;BME280;14738;42.668;23.250;2023-05-07T11:31:24;48541.19;;;-141.90;24.60
5298;BME280;14738;42.668;23.250;2023-05-07T11:33:52;48551.09;;;-141.90;25.03
5298;BME280;14738;42.668;23.250;2023-05-07T11:36:18;48559.06;;;-141.90;25.44
5298;BME280;14738;42.668;23.250;2023-05-07T11:38:45;48555.09;;;-141.90;24.65
5298;BME280;14738;42.668;23.250;2023-05-07T11:41:12;48565.00;;;-141.90;24.84
5298;BME280;14738;42.668;23.250;2023-05-07T11:43:53;48533.25;;;-141.90;24.78
5298;BME280;14738;42.668;23.250;2023-05-07T11:46:20;48511.41;;;-141.90;25.35
5298;BME280;14738;42.668;23.250;2023-05-07T11:48:45;48493.53;;;-141.90;25.60
5298;BME280;14738;42.668;23.250;2023-05-07T11:51:10;48541.19;;;-141.90;25.93
5298;BME280;14738;42.668;23.250;2023-05-07T11:53:41;48539.19;;;-141.90;25.76
5298;BME280;14738;42.668;23.250;2023-05-07T11:56:14;48539.19;;;-141.90;25.20
5298;BME280;14738;42.668;23.250;2023-05-07T11:58:41;48541.19;;;-141.90;25.23
5298;BME280;14738;42.668;23.250;2023-05-07T12:01:10;48553.09;;;-141.90;24.96
5298;BME280;14738;42.668;23.250;2023-05-07T12:03:37;48513.38;;;-141.90;24.89
5298;BME280;14738;42.668;23.250;2023-05-07T12:06:06;48545.16;;;-141.90;24.80
5298;BME280;14738;42.668;23.250;2023-05-07T12:08:32;48563.03;;;-141.90;24.84
5298;BME280;14738;42.668;23.250;2023-05-07T12:10:58;48586.84;;;-141.90;24.69
5298;BME280;14738;42.668;23.250;2023-05-07T12:13:25;48539.19;;;-141.90;24.87
5298;BME280;14738;42.668;23.250;2023-05-07T12:15:55;48547.13;;;-141.90;25.35
5298;BME280;14738;42.668;23.250;2023-05-07T12:18:22;48549.13;;;-141.90;25.38
5298;BME280;14738;42.668;23.250;2023-05-07T12:20:48;48541.19;;;-141.90;23.77
5298;BME280;14738;42.668;23.250;2023-05-07T12:23:14;48543.16;;;-141.90;24.72
5298;BME280;14738;42.668;23.250;2023-05-07T12:25:41;48557.06;;;-141.90;24.11
5298;BME280;14738;42.668;23.250;2023-05-07T12:28:17;48568.97;;;-141.90;25.02
5298;BME280;14738;42.668;23.250;2023-05-07T12:30:44;48525.31;;;-141.90;24.48
5298;BME280;14738;42.668;23.250;2023-05-07T12:33:10;48543.16;;;-141.90;24.37
5298;BME280;14738;42.668;23.250;2023-05-07T12:35:40;48533.25;;;-141.90;24.51
5298;BME280;14738;42.668;23.250;2023-05-07T12:38:11;48529.28;;;-141.90;24.14
5298;BME280;14738;42.668;23.250;2023-05-07T12:40:47;48588.84;;;-141.90;23.98
5298;BME280;14738;42.668;23.250;2023-05-07T12:43:20;48553.09;;;-141.90;23.67
5298;BME280;14738;42.668;23.250;2023-05-07T12:45:50;48533.25;;;-141.90;23.85